James, Iowa
Current Conditions -  °F | °C
As of 5:52 PM on Sunday 25 Jan 2015 (Local Time) from KSUX Reporting Station
Overcast Overcast  
Wind Chill: 32°   Ceiling: 1400
Heat Index: 37°   Visibility: 10mi
Dew Point: 33°   Wind: 6mph
Humidity: 86%   Direction: 310°NW
Pressure: 30.06"   Gusts: NA
Location:  42.5567°N, 96.3605°W
Report Text: KSUX 252352Z 31005KT 10SM BKN014 OVC019 03/01 A3006 RMK AO2 SLP191 T00280006 10039 20022 53004
Loading
Personal Weather Stations






























Interactive Weather Map New forecast layout! Learn more

10-Day Weather Forecast

Advertisements
Track Severe Weather on mobile